Whiteville, Louisiana
Current Conditions -  °F | °C
As of 10:15 AM on Friday 21 Nov 2014 (Local Time) from KOPL Reporting Station
Overcast Overcast  
Wind Chill: 66°   Ceiling: 9000
Heat Index: 66°   Visibility: 10mi
Dew Point: 47°   Wind: 12mph
Humidity: 50%   Direction: 110°ESE
Pressure: 30.27"   Gusts: 20mph
Location:  30.9328°N, 92.1876°W
Report Text: KOPL 211615Z AUTO 11010G17KT 10SM OVC090 19/08 A3027 RMK AO2 T01870082
Loading
Personal Weather Stations






























Interactive Weather Map New forecast layout! Learn more

10-Day Weather Forecast

Advertisements
Track Severe Weather on mobile